createdAt,value
2018-05-17T00:00:25.109Z,101632.31
2018-05-17T00:01:28.422Z,101633.29
2018-05-17T00:02:31.748Z,101632.53
2018-05-17T00:03:35.066Z,101644.64
2018-05-17T00:04:38.423Z,101641.66
2018-05-17T00:05:41.756Z,101632.93
2018-05-17T00:06:45.058Z,101632.72
2018-05-17T00:07:48.376Z,101635.09
2018-05-17T00:08:51.686Z,101638.25
2018-05-17T00:09:55.031Z,101638.69
2018-05-17T00:10:58.350Z,101637.47
2018-05-17T00:12:01.670Z,101636.41
2018-05-17T00:13:04.992Z,101632.88
2018-05-17T00:14:08.300Z,101646.35
2018-05-17T00:15:11.658Z,101642.18
2018-05-17T00:16:14.984Z,101643.67
2018-05-17T00:17:18.315Z,101641.14
2018-05-17T00:18:21.818Z,101647.47
2018-05-17T00:19:25.138Z,101648.02
2018-05-17T00:20:28.482Z,101643.45
2018-05-17T00:21:31.795Z,101645.77
2018-05-17T00:22:35.104Z,101646.31
2018-05-17T00:23:38.422Z,101646.31
2018-05-17T00:24:41.736Z,101653.63
2018-05-17T00:25:45.077Z,101647.49
2018-05-17T00:26:48.430Z,101658.83
2018-05-17T00:27:51.764Z,101652.84
2018-05-17T00:28:55.084Z,101656.55
2018-05-17T00:29:58.398Z,101658.95
2018-05-17T00:31:01.747Z,101654.50
2018-05-17T00:32:05.052Z,101656.81
2018-05-17T00:33:08.370Z,101665.48
2018-05-17T00:34:11.696Z,101655.89
2018-05-17T00:35:15.013Z,101652.55
2018-05-17T00:36:18.402Z,101658.11
2018-05-17T00:37:21.723Z,101655.06
2018-05-17T00:38:25.032Z,101662.17
2018-05-17T00:39:28.348Z,101656.34
2018-05-17T00:40:31.663Z,101658.90
2018-05-17T00:41:35.068Z,101659.23
2018-05-17T00:42:38.377Z,101659.60
2018-05-17T00:43:41.695Z,101665.80
2018-05-17T00:44:45.026Z,101667.35
2018-05-17T00:45:48.349Z,101666.92
2018-05-17T00:46:51.693Z,101666.70
2018-05-17T00:47:55.030Z,101663.73
2018-05-17T00:48:58.592Z,101665.21
2018-05-17T00:50:01.911Z,101668.06
2018-05-17T00:51:05.305Z,101679.67
2018-05-17T00:52:08.629Z,101670.24
2018-05-17T00:53:23.649Z,101670.84
2018-05-17T00:54:26.947Z,101668.48
2018-05-17T00:55:30.266Z,101666.92
2018-05-17T00:56:33.737Z,101674.05
2018-05-17T00:57:37.226Z,101677.67
2018-05-17T00:58:40.544Z,101678.84
2018-05-17T00:59:43.861Z,101676.00
2018-05-17T01:00:47.181Z,101682.27
2018-05-17T01:01:50.511Z,101682.27
2018-05-17T01:02:53.937Z,101682.15
2018-05-17T01:03:57.242Z,101677.99
2018-05-17T01:05:00.552Z,101678.36
2018-05-17T01:06:03.871Z,101682.38
2018-05-17T01:07:07.187Z,101676.59
2018-05-17T01:08:10.523Z,101680.98
2018-05-17T01:09:13.839Z,101679.98
2018-05-17T01:10:17.154Z,101678.58
2018-05-17T01:11:20.476Z,101680.77
2018-05-17T01:12:23.789Z,101679.01
2018-05-17T01:13:27.147Z,101682.59
2018-05-17T01:14:30.480Z,101672.33
2018-05-17T01:15:33.810Z,101678.05
2018-05-17T01:16:37.118Z,101677.35
2018-05-17T01:17:40.435Z,101684.37
2018-05-17T01:18:43.782Z,101675.44
2018-05-17T01:19:47.083Z,101682.92
2018-05-17T01:20:50.456Z,101685.65
2018-05-17T01:21:53.736Z,101691.27
2018-05-17T01:22:57.035Z,101692.23
2018-05-17T01:24:00.376Z,101693.28
2018-05-17T01:25:03.691Z,101689.48
2018-05-17T01:26:07.000Z,101690.98
2018-05-17T01:27:10.317Z,101692.47
2018-05-17T01:28:13.622Z,101697.87
2018-05-17T01:29:16.962Z,101692.59
2018-05-17T01:30:20.452Z,101692.59
2018-05-17T01:31:23.785Z,101695.95
2018-05-17T01:32:27.103Z,101695.72
2018-05-17T01:33:30.409Z,101693.53
2018-05-17T01:34:33.733Z,101701.19
2018-05-17T01:35:37.047Z,101700.16
2018-05-17T01:36:52.134Z,101700.53
2018-05-17T01:38:07.054Z,101703.80
2018-05-17T01:39:10.363Z,101699.62
2018-05-17T01:40:13.707Z,101702.72
2018-05-17T01:41:17.039Z,101702.35
2018-05-17T01:42:20.355Z,101708.49
2018-05-17T01:43:23.674Z,101707.70
2018-05-17T01:44:26.989Z,101705.81
2018-05-17T01:45:30.335Z,101705.70
2018-05-17T01:46:33.664Z,101709.94
2018-05-17T01:47:36.959Z,101712.13
2018-05-17T01:48:40.283Z,101708.94
2018-05-17T01:49:43.803Z,101714.80
2018-05-17T01:50:47.478Z,101719.23
2018-05-17T01:51:50.807Z,101709.14
2018-05-17T01:52:54.154Z,101711.81
2018-05-17T01:53:57.482Z,101713.30
2018-05-17T01:55:00.804Z,101711.59
2018-05-17T01:56:04.164Z,101711.96
2018-05-17T01:57:07.468Z,101714.12
2018-05-17T01:58:10.789Z,101718.64
2018-05-17T01:59:14.107Z,101719.61
2018-05-17T02:00:17.453Z,101706.93
2018-05-17T02:01:20.762Z,101712.88
2018-05-17T02:02:24.134Z,101711.68
2018-05-17T02:03:27.452Z,101722.48
2018-05-17T02:04:30.769Z,101731.07
2018-05-17T02:05:34.085Z,101718.88
2018-05-17T02:06:37.474Z,101725.61
2018-05-17T02:07:40.782Z,101717.17
2018-05-17T02:08:44.093Z,101722.72
2018-05-17T02:09:47.406Z,101730.78
2018-05-17T02:10:50.731Z,101727.63
2018-05-17T02:11:54.095Z,101725.98
2018-05-17T02:12:57.408Z,101729.55
2018-05-17T02:14:00.739Z,101724.41
2018-05-17T02:15:04.139Z,101728.00
2018-05-17T02:16:07.396Z,101727.09
2018-05-17T02:17:10.727Z,101726.52
2018-05-17T02:18:14.042Z,101736.66
2018-05-17T02:19:17.370Z,101738.37
2018-05-17T02:20:20.666Z,101729.45
2018-05-17T02:21:23.975Z,101738.42
2018-05-17T02:22:27.324Z,101729.33
2018-05-17T02:23:30.644Z,101744.50
2018-05-17T02:24:33.986Z,101731.34
2018-05-17T02:25:37.295Z,101731.71
2018-05-17T02:26:40.683Z,101740.83
2018-05-17T02:27:44.028Z,101732.59
2018-05-17T02:28:47.343Z,101727.78
2018-05-17T02:29:50.646Z,101742.05
2018-05-17T02:30:53.972Z,101728.89
2018-05-17T02:31:57.290Z,101732.09
2018-05-17T02:33:00.638Z,101736.10
2018-05-17T02:34:03.959Z,101728.41
2018-05-17T02:35:07.287Z,101731.42
2018-05-17T02:36:10.616Z,101729.55
2018-05-17T02:37:14.143Z,101729.97
2018-05-17T02:38:17.501Z,101727.67
2018-05-17T02:39:20.821Z,101724.15
2018-05-17T02:40:24.157Z,101725.54
2018-05-17T02:41:27.471Z,101734.46
2018-05-17T02:42:30.794Z,101731.84
2018-05-17T02:43:34.126Z,101729.17
2018-05-17T02:44:37.459Z,101731.84
2018-05-17T02:45:40.776Z,101730.17
2018-05-17T02:46:44.100Z,101728.84
2018-05-17T02:47:47.436Z,101726.76
2018-05-17T02:48:50.773Z,101724.03
2018-05-17T02:49:54.081Z,101730.28
2018-05-17T02:50:57.438Z,101725.37
2018-05-17T02:52:01.420Z,101725.08
2018-05-17T02:53:04.736Z,101726.53
2018-05-17T02:54:08.077Z,101728.72
2018-05-17T02:55:11.397Z,101728.29
2018-05-17T02:56:14.724Z,101727.86
2018-05-17T02:57:18.044Z,101724.28
2018-05-17T02:58:21.377Z,101735.39
2018-05-17T02:59:24.732Z,101727.44
2018-05-17T03:00:28.026Z,101735.39
2018-05-17T03:01:31.368Z,101735.45
2018-05-17T03:02:34.686Z,101732.34
2018-05-17T03:03:38.001Z,101738.48
2018-05-17T03:04:41.357Z,101739.83
2018-05-17T03:05:44.664Z,101736.84
2018-05-17T03:06:47.991Z,101742.13
2018-05-17T03:07:51.308Z,101743.09
2018-05-17T03:08:54.623Z,101740.42
2018-05-17T03:09:57.960Z,101741.41
2018-05-17T03:11:01.270Z,101745.95
2018-05-17T03:12:04.614Z,101748.77
2018-05-17T03:13:07.944Z,101753.59
2018-05-17T03:14:11.287Z,101752.77
2018-05-17T03:15:14.633Z,101747.59
2018-05-17T03:16:17.959Z,101748.93
2018-05-17T03:17:21.278Z,101743.64
2018-05-17T03:18:24.617Z,101746.83
2018-05-17T03:19:27.920Z,101752.70
2018-05-17T03:20:31.268Z,101749.07
2018-05-17T03:21:34.618Z,101751.80
2018-05-17T03:22:37.976Z,101749.13
2018-05-17T03:23:41.286Z,101744.41
2018-05-17T03:24:44.590Z,101753.06
2018-05-17T03:25:47.926Z,101750.91
2018-05-17T03:26:51.404Z,101754.96
2018-05-17T03:27:54.731Z,101755.87
2018-05-17T03:28:58.039Z,101750.48
2018-05-17T03:30:01.370Z,101755.02
2018-05-17T03:31:04.746Z,101755.87
2018-05-17T03:32:08.336Z,101754.16
2018-05-17T03:33:11.635Z,101751.06
2018-05-17T03:34:15.054Z,101755.92
2018-05-17T03:35:18.383Z,101757.27
2018-05-17T03:36:21.712Z,101755.13
2018-05-17T03:37:25.050Z,101754.16
2018-05-17T03:38:28.390Z,101750.96
2018-05-17T03:39:31.721Z,101753.97
2018-05-17T03:40:35.031Z,101757.97
2018-05-17T03:41:38.397Z,101764.80
2018-05-17T03:42:41.713Z,101758.73
2018-05-17T03:43:45.026Z,101759.22
2018-05-17T03:44:48.376Z,101754.66
2018-05-17T03:45:51.681Z,101752.90
2018-05-17T03:46:55.039Z,101755.09
2018-05-17T03:47:58.360Z,101757.81
2018-05-17T03:49:01.685Z,101752.19
2018-05-17T03:50:04.991Z,101756.72
2018-05-17T03:51:08.298Z,101751.76
2018-05-17T03:52:11.851Z,101764.91
2018-05-17T03:53:15.175Z,101752.52
2018-05-17T03:54:18.819Z,101759.63
2018-05-17T03:55:22.144Z,101751.76
2018-05-17T03:56:25.503Z,101755.20
2018-05-17T03:57:28.835Z,101754.28
2018-05-17T03:58:32.183Z,101751.62
2018-05-17T03:59:35.499Z,101760.48
2018-05-17T04:00:50.590Z,101759.58
2018-05-17T04:02:05.531Z,101758.68
2018-05-17T04:03:20.617Z,101767.52
2018-05-17T04:04:35.793Z,101760.33
2018-05-17T04:07:17.982Z,101753.77
2018-05-17T04:08:21.322Z,101757.53
2018-05-17T04:09:24.650Z,101763.20
2018-05-17T04:10:28.116Z,101761.39
2018-05-17T04:11:31.432Z,101762.25
2018-05-17T04:12:34.751Z,101758.56
2018-05-17T04:13:38.106Z,101760.23
2018-05-17T04:14:41.420Z,101761.89
2018-05-17T04:15:44.726Z,101773.34
2018-05-17T04:16:48.043Z,101768.00
2018-05-17T04:17:51.351Z,101764.38
2018-05-17T04:18:54.710Z,101775.95
2018-05-17T04:19:58.003Z,101776.28
2018-05-17T04:21:01.311Z,101770.42
2018-05-17T04:22:04.623Z,101773.47
2018-05-17T04:23:07.955Z,101772.94
2018-05-17T04:24:11.278Z,101771.46
2018-05-17T04:25:14.601Z,101773.11
2018-05-17T04:26:17.917Z,101766.78
2018-05-17T04:27:21.405Z,101771.64
2018-05-17T04:28:24.712Z,101774.20
2018-05-17T04:29:28.071Z,101779.48
2018-05-17T04:30:31.419Z,101781.54
2018-05-17T04:31:34.751Z,101782.39
2018-05-17T04:32:38.087Z,101777.42
2018-05-17T04:33:41.403Z,101780.44
2018-05-17T04:34:44.743Z,101774.24
2018-05-17T04:35:48.055Z,101776.80
2018-05-17T04:36:51.379Z,101778.85
2018-05-17T04:37:54.689Z,101776.02
2018-05-17T04:38:58.003Z,101779.03
2018-05-17T04:40:01.348Z,101781.28
2018-05-17T04:41:04.707Z,101787.23
2018-05-17T04:42:08.039Z,101777.04
2018-05-17T04:43:11.381Z,101779.17
2018-05-17T04:44:14.711Z,101780.56
2018-05-17T04:45:18.041Z,101778.42
2018-05-17T04:46:21.364Z,101783.23
2018-05-17T04:47:24.720Z,101781.90
2018-05-17T04:48:28.038Z,101786.76
2018-05-17T04:49:31.358Z,101793.44
2018-05-17T04:50:34.705Z,101790.34
2018-05-17T04:51:38.066Z,101787.61
2018-05-17T04:52:41.755Z,101791.30
2018-05-17T04:53:45.065Z,101789.00
2018-05-17T04:54:48.487Z,101796.48
2018-05-17T04:55:51.752Z,101791.53
2018-05-17T04:56:55.050Z,101791.91
2018-05-17T04:57:58.433Z,101790.14
2018-05-17T04:59:01.756Z,101787.52
2018-05-17T05:00:05.074Z,101789.05
2018-05-17T05:01:08.425Z,101788.69
2018-05-17T05:02:11.738Z,101790.58
2018-05-17T05:03:15.057Z,101784.77
2018-05-17T05:04:18.379Z,101785.62
2018-05-17T05:05:21.691Z,101782.33
2018-05-17T05:06:25.039Z,101784.52
2018-05-17T05:07:28.819Z,101777.70
2018-05-17T05:08:32.151Z,101787.31
2018-05-17T05:09:35.459Z,101777.96
2018-05-17T05:10:38.779Z,101779.21
2018-05-17T05:11:42.126Z,101780.97
2018-05-17T05:12:45.448Z,101780.44
2018-05-17T05:13:48.759Z,101778.20
2018-05-17T05:14:52.095Z,101780.81
2018-05-17T05:15:55.394Z,101782.48
2018-05-17T05:16:58.795Z,101782.86
2018-05-17T05:18:02.051Z,101776.13
2018-05-17T05:19:05.386Z,101788.15
2018-05-17T05:20:08.828Z,101782.37
2018-05-17T05:21:12.159Z,101781.09
2018-05-17T05:22:15.498Z,101781.09
2018-05-17T05:23:18.826Z,101788.69
2018-05-17T05:24:22.192Z,101788.83
2018-05-17T05:25:25.515Z,101787.31
2018-05-17T05:26:28.912Z,101783.36
2018-05-17T05:27:32.268Z,101784.80
2018-05-17T05:28:35.591Z,101781.42
2018-05-17T05:29:38.965Z,101784.20
2018-05-17T05:30:42.299Z,101784.67
2018-05-17T05:31:45.634Z,101786.81
2018-05-17T05:32:49.001Z,101785.91
2018-05-17T05:33:52.331Z,101777.36
2018-05-17T05:34:55.653Z,101785.60
2018-05-17T05:35:58.968Z,101786.27
2018-05-17T05:37:02.310Z,101789.22
2018-05-17T05:38:05.924Z,101780.24
2018-05-17T05:39:09.280Z,101778.00
2018-05-17T05:40:12.625Z,101779.70
2018-05-17T05:41:15.947Z,101789.39
2018-05-17T05:42:19.260Z,101784.20
2018-05-17T05:43:22.683Z,101787.58
2018-05-17T05:44:25.934Z,101789.58
2018-05-17T05:45:29.274Z,101793.28
2018-05-17T05:46:32.611Z,101791.35
2018-05-17T05:47:35.934Z,101790.25
2018-05-17T05:48:39.271Z,101796.78
2018-05-17T05:49:42.589Z,101793.95
2018-05-17T05:50:45.924Z,101795.14
2018-05-17T05:51:49.238Z,101799.16
2018-05-17T05:52:52.849Z,101800.44
2018-05-17T05:53:56.210Z,101797.66
2018-05-17T05:54:59.546Z,101806.81
2018-05-17T05:56:02.889Z,101808.38
2018-05-17T05:57:06.250Z,101807.84
2018-05-17T05:58:09.651Z,101804.15
2018-05-17T05:59:13.183Z,101800.03
2018-05-17T06:00:16.774Z,101805.00
2018-05-17T06:01:20.213Z,101811.62
2018-05-17T06:02:23.935Z,101813.02
2018-05-17T06:03:27.241Z,101822.42
2018-05-17T06:04:30.593Z,101810.51
2018-05-17T06:05:33.921Z,101811.90
2018-05-17T06:06:37.262Z,101814.14
2018-05-17T06:07:40.579Z,101812.69
2018-05-17T06:08:43.921Z,101818.66
2018-05-17T06:09:47.312Z,101815.61
2018-05-17T06:10:50.625Z,101815.98
2018-05-17T06:11:54.215Z,101814.93
2018-05-17T06:12:57.526Z,101815.53
2018-05-17T06:14:00.855Z,101817.45
2018-05-17T06:15:04.202Z,101816.66
2018-05-17T06:16:07.614Z,101805.16
2018-05-17T06:17:10.940Z,101807.95
2018-05-17T06:18:14.252Z,101809.83
2018-05-17T06:19:17.601Z,101816.05
2018-05-17T06:20:20.937Z,101809.97
2018-05-17T06:21:24.308Z,101811.53
2018-05-17T06:22:27.639Z,101815.12
2018-05-17T06:23:30.969Z,101809.47
2018-05-17T06:24:34.299Z,101809.92
2018-05-17T06:25:37.622Z,101808.64
2018-05-17T06:26:41.130Z,101809.20
2018-05-17T06:27:44.434Z,101817.00
2018-05-17T06:28:47.746Z,101813.75
2018-05-17T06:29:51.068Z,101816.57
2018-05-17T06:30:54.471Z,101812.19
2018-05-17T06:31:57.795Z,101812.30
2018-05-17T06:33:01.111Z,101824.70
2018-05-17T06:34:04.472Z,101814.98
2018-05-17T06:35:07.804Z,101809.58
2018-05-17T06:36:11.162Z,101811.66
2018-05-17T06:37:14.475Z,101813.16
2018-05-17T06:38:17.807Z,101810.28
2018-05-17T06:39:21.171Z,101811.78
2018-05-17T06:40:24.483Z,101809.65
2018-05-17T06:41:27.836Z,101808.81
2018-05-17T06:42:31.172Z,101806.02
2018-05-17T06:43:34.504Z,101807.30
2018-05-17T06:44:37.822Z,101812.14
2018-05-17T06:45:41.164Z,101808.07
2018-05-17T06:46:44.574Z,101806.89
2018-05-17T06:47:47.920Z,101811.56
2018-05-17T06:48:51.521Z,101811.81
2018-05-17T06:49:54.851Z,101808.98
2018-05-17T06:50:58.205Z,101810.98
2018-05-17T06:52:01.543Z,101811.20
2018-05-17T06:53:04.983Z,101809.32
2018-05-17T06:54:08.332Z,101810.94
2018-05-17T06:55:11.651Z,101808.50
2018-05-17T06:56:14.969Z,101806.07
2018-05-17T06:57:18.309Z,101811.99
2018-05-17T06:58:21.639Z,101808.64
2018-05-17T06:59:24.975Z,101810.00
2018-05-17T07:00:28.611Z,101807.41
2018-05-17T07:01:31.887Z,101801.23
2018-05-17T07:02:35.262Z,101812.22
2018-05-17T07:03:38.570Z,101811.47
2018-05-17T07:04:41.899Z,101814.00
2018-05-17T07:05:45.276Z,101811.88
2018-05-17T07:06:48.627Z,101813.67
2018-05-17T07:07:51.943Z,101812.13
2018-05-17T07:08:55.267Z,101807.98
2018-05-17T07:09:58.620Z,101813.31
2018-05-17T07:11:01.972Z,101823.77
2018-05-17T07:12:05.319Z,101813.78
2018-05-17T07:13:08.668Z,101824.94
2018-05-17T07:14:11.961Z,101816.79
2018-05-17T07:15:15.275Z,101818.55
2018-05-17T07:16:18.612Z,101819.06
2018-05-17T07:17:21.929Z,101807.21
2018-05-17T07:18:25.363Z,101813.45
2018-05-17T07:19:28.659Z,101812.53
2018-05-17T07:20:31.985Z,101810.02
2018-05-17T07:21:35.340Z,101813.73
2018-05-17T07:22:38.664Z,101816.09
2018-05-17T07:23:41.999Z,101818.52
2018-05-17T07:24:45.337Z,101823.02
2018-05-17T07:25:48.832Z,101824.58
2018-05-17T07:26:52.156Z,101820.44
2018-05-17T07:27:55.492Z,101815.48
2018-05-17T07:28:58.839Z,101819.46
2018-05-17T07:30:02.164Z,101826.95
2018-05-17T07:31:05.535Z,101828.81
2018-05-17T07:32:08.894Z,101823.30
2018-05-17T07:33:12.207Z,101825.14
2018-05-17T07:34:15.709Z,101825.85
2018-05-17T07:35:19.052Z,101822.02
2018-05-17T07:36:22.364Z,101829.66
2018-05-17T07:37:25.735Z,101822.72
2018-05-17T07:38:29.032Z,101825.33
2018-05-17T07:39:32.380Z,101819.75
2018-05-17T07:40:35.688Z,101824.27
2018-05-17T07:41:38.998Z,101825.77
2018-05-17T07:42:42.316Z,101820.73
2018-05-17T07:43:45.627Z,101824.33
2018-05-17T07:44:48.997Z,101822.94
2018-05-17T07:45:52.343Z,101818.13
2018-05-17T07:46:55.682Z,101815.19
2018-05-17T07:47:59.014Z,101815.27
2018-05-17T07:49:02.352Z,101814.88
2018-05-17T07:50:05.687Z,101822.52
2018-05-17T07:51:08.998Z,101823.09
2018-05-17T07:52:12.331Z,101825.98
2018-05-17T07:53:15.899Z,101822.08
2018-05-17T07:54:19.236Z,101827.66
2018-05-17T07:55:22.590Z,101827.63
2018-05-17T07:56:25.905Z,101833.95
2018-05-17T07:57:29.248Z,101830.36
2018-05-17T07:58:32.552Z,101827.24
2018-05-17T07:59:35.874Z,101822.36
2018-05-17T08:00:39.209Z,101816.44
2018-05-17T08:01:42.537Z,101827.38
2018-05-17T08:02:45.831Z,101821.09
2018-05-17T08:03:49.150Z,101825.79
2018-05-17T08:04:52.459Z,101826.42
2018-05-17T08:05:55.791Z,101831.69
2018-05-17T08:06:59.149Z,101827.73
2018-05-17T08:08:02.448Z,101830.84
2018-05-17T08:09:06.609Z,101827.63
2018-05-17T08:10:09.917Z,101832.34
2018-05-17T08:11:13.303Z,101823.30
2018-05-17T08:12:16.626Z,101823.30
2018-05-17T08:13:19.977Z,101836.44
2018-05-17T08:14:23.286Z,101824.16
2018-05-17T08:15:26.606Z,101834.97
2018-05-17T08:16:29.967Z,101838.31
2018-05-17T08:17:33.279Z,101833.07
2018-05-17T08:18:36.611Z,101839.30
2018-05-17T08:19:39.960Z,101837.95
2018-05-17T08:20:43.259Z,101837.49
2018-05-17T08:21:46.612Z,101835.00
2018-05-17T08:22:49.935Z,101835.23
2018-05-17T08:23:53.243Z,101827.36
2018-05-17T08:24:56.575Z,101832.73
2018-05-17T08:25:59.902Z,101833.72
2018-05-17T08:27:03.236Z,101830.28
2018-05-17T08:28:06.539Z,101834.84
2018-05-17T08:29:09.873Z,101836.84
2018-05-17T08:30:13.177Z,101829.70
2018-05-17T08:31:16.501Z,101836.70
2018-05-17T08:32:19.838Z,101833.20
2018-05-17T08:33:23.150Z,101830.67
2018-05-17T08:34:26.519Z,101836.14
2018-05-17T08:35:29.852Z,101827.95
2018-05-17T08:36:33.239Z,101841.10
2018-05-17T08:37:36.504Z,101836.11
2018-05-17T08:38:39.822Z,101839.96
2018-05-17T08:39:43.143Z,101835.78
2018-05-17T08:40:46.468Z,101840.22
2018-05-17T08:41:49.776Z,101842.44
2018-05-17T08:42:53.116Z,101837.48
2018-05-17T08:43:56.423Z,101838.06
2018-05-17T08:44:59.739Z,101839.25
2018-05-17T08:46:03.353Z,101842.92
2018-05-17T08:47:06.652Z,101835.58
2018-05-17T08:48:09.995Z,101845.74
2018-05-17T08:49:13.307Z,101836.50
2018-05-17T08:50:16.624Z,101845.48
2018-05-17T08:51:19.936Z,101840.22
2018-05-17T08:52:23.258Z,101841.91
2018-05-17T08:53:26.780Z,101848.62
2018-05-17T08:54:30.129Z,101834.70
2018-05-17T08:55:33.427Z,101837.59
2018-05-17T08:56:36.736Z,101834.34
2018-05-17T08:57:40.075Z,101844.02
2018-05-17T08:58:43.407Z,101840.96
2018-05-17T08:59:46.809Z,101841.75
2018-05-17T09:00:50.046Z,101837.16
2018-05-17T09:01:53.388Z,101837.30
2018-05-17T09:02:56.703Z,101841.13
2018-05-17T09:04:00.061Z,101838.14
2018-05-17T09:05:03.382Z,101843.25
2018-05-17T09:06:06.747Z,101838.44
2018-05-17T09:07:10.072Z,101840.20
2018-05-17T09:08:13.374Z,101842.33
2018-05-17T09:09:16.746Z,101852.36
2018-05-17T09:10:20.063Z,101847.41
2018-05-17T09:11:23.374Z,101838.24
2018-05-17T09:12:26.690Z,101841.64
2018-05-17T09:13:30.117Z,101837.31
2018-05-17T09:14:33.374Z,101837.19
2018-05-17T09:15:36.849Z,101846.19
2018-05-17T09:16:40.099Z,101843.13
2018-05-17T09:17:43.422Z,101842.30
2018-05-17T09:18:46.732Z,101847.23
2018-05-17T09:19:50.084Z,101840.66
2018-05-17T09:20:53.408Z,101847.08
2018-05-17T09:21:56.748Z,101849.96
2018-05-17T09:23:00.059Z,101847.88
2018-05-17T09:24:03.389Z,101839.10
2018-05-17T09:25:06.758Z,101840.52
2018-05-17T09:26:10.133Z,101857.55
2018-05-17T09:27:13.457Z,101856.41
2018-05-17T09:28:16.773Z,101848.64
2018-05-17T09:29:20.144Z,101858.20
2018-05-17T09:30:23.423Z,101843.49
2018-05-17T09:31:26.773Z,101844.83
2018-05-17T09:32:30.095Z,101846.23
2018-05-17T09:33:33.403Z,101839.27
2018-05-17T09:34:36.725Z,101843.09
2018-05-17T09:35:40.173Z,101842.27
2018-05-17T09:36:43.480Z,101841.92
2018-05-17T09:37:46.825Z,101838.95
2018-05-17T09:38:50.172Z,101836.98
2018-05-17T09:39:53.499Z,101841.23
2018-05-17T09:40:57.098Z,101835.14
2018-05-17T09:42:00.405Z,101837.07
2018-05-17T09:43:03.719Z,101842.50
2018-05-17T09:44:07.037Z,101839.39
2018-05-17T09:45:10.400Z,101834.18
2018-05-17T09:46:13.844Z,101842.30
2018-05-17T09:47:17.163Z,101839.67
2018-05-17T09:48:20.695Z,101845.53
2018-05-17T09:49:24.008Z,101852.31
2018-05-17T09:50:27.320Z,101843.44
2018-05-17T09:51:30.688Z,101843.77
2018-05-17T09:52:34.016Z,101842.91
2018-05-17T09:53:37.606Z,101841.73
2018-05-17T09:54:40.907Z,101837.77
2018-05-17T09:55:44.251Z,101837.41
2018-05-17T09:56:47.591Z,101841.09
2018-05-17T09:57:50.943Z,101849.64
2018-05-17T09:58:54.471Z,101844.40
2018-05-17T09:59:57.793Z,101842.91
2018-05-17T10:01:01.102Z,101853.80
2018-05-17T10:02:04.440Z,101843.48
2018-05-17T10:03:07.760Z,101842.00
2018-05-17T10:04:11.153Z,101839.61
2018-05-17T10:05:14.458Z,101839.61
2018-05-17T10:06:17.807Z,101838.12
2018-05-17T10:07:21.132Z,101839.82
2018-05-17T10:08:24.469Z,101836.65
2018-05-17T10:09:27.803Z,101843.42
2018-05-17T10:10:31.144Z,101839.88
2018-05-17T10:11:34.458Z,101833.66
2018-05-17T10:12:37.802Z,101836.02
2018-05-17T10:13:41.094Z,101831.56
2018-05-17T10:14:44.439Z,101826.53
2018-05-17T10:15:47.763Z,101831.22
2018-05-17T10:16:51.079Z,101832.34
2018-05-17T10:17:54.417Z,101835.10
2018-05-17T10:18:57.737Z,101832.20
2018-05-17T10:20:01.208Z,101828.86
2018-05-17T10:21:04.523Z,101826.75
2018-05-17T10:22:07.843Z,101825.97
2018-05-17T10:23:11.220Z,101826.11
2018-05-17T10:24:14.511Z,101826.31
2018-05-17T10:25:17.845Z,101829.36
2018-05-17T10:26:21.131Z,101835.58
2018-05-17T10:27:24.527Z,101833.87
2018-05-17T10:28:27.918Z,101829.28
2018-05-17T10:29:31.304Z,101827.38
2018-05-17T10:30:34.532Z,101825.41
2018-05-17T10:31:37.860Z,101817.94
2018-05-17T10:32:41.187Z,101824.66
2018-05-17T10:33:44.523Z,101823.21
2018-05-17T10:34:47.830Z,101825.41
2018-05-17T10:35:51.133Z,101823.52
2018-05-17T10:36:54.446Z,101822.17
2018-05-17T10:37:57.790Z,101830.22
2018-05-17T10:39:01.141Z,101824.48
2018-05-17T10:40:04.473Z,101821.60
2018-05-17T10:41:07.779Z,101813.13
2018-05-17T10:42:11.107Z,101820.27
2018-05-17T10:43:14.456Z,101822.88
2018-05-17T10:44:17.882Z,101819.19
2018-05-17T10:45:21.198Z,101821.25
2018-05-17T10:46:24.500Z,101821.58
2018-05-17T10:47:27.824Z,101818.91
2018-05-17T10:48:31.154Z,101823.58
2018-05-17T10:49:34.503Z,101815.09
2018-05-17T10:50:37.791Z,101823.64
2018-05-17T10:51:41.119Z,101819.67
2018-05-17T10:52:44.427Z,101815.75
2018-05-17T10:53:48.061Z,101820.69
2018-05-17T10:54:51.441Z,101821.17
2018-05-17T10:55:54.797Z,101819.90
2018-05-17T10:56:58.159Z,101813.06
2018-05-17T10:58:01.438Z,101814.73
2018-05-17T10:59:04.783Z,101805.64
2018-05-17T11:00:08.141Z,101803.72
2018-05-17T11:01:11.439Z,101812.55
2018-05-17T11:02:14.768Z,101811.15
2018-05-17T11:03:18.089Z,101813.25
2018-05-17T11:04:21.421Z,101816.45
2018-05-17T11:05:24.779Z,101817.37
2018-05-17T11:06:28.092Z,101824.20
2018-05-17T11:07:31.411Z,101808.59
2018-05-17T11:08:34.728Z,101808.16
2018-05-17T11:09:38.047Z,101816.37
2018-05-17T11:10:41.399Z,101811.98
2018-05-17T11:11:44.713Z,101813.81
2018-05-17T11:12:48.092Z,101807.60
2018-05-17T11:13:51.487Z,101799.55
2018-05-17T11:14:54.728Z,101803.02
2018-05-17T11:15:58.083Z,101814.05
2018-05-17T11:17:01.374Z,101823.45
2018-05-17T11:19:14.208Z,101806.13
2018-05-17T11:20:17.523Z,101807.60
2018-05-17T11:21:20.884Z,101803.09
2018-05-17T11:22:24.370Z,101818.70
2018-05-17T11:23:27.681Z,101816.02
2018-05-17T11:24:31.071Z,101814.12
2018-05-17T11:25:34.387Z,101809.61
2018-05-17T11:26:37.731Z,101807.73
2018-05-17T11:27:41.051Z,101800.64
2018-05-17T11:28:44.376Z,101794.42
2018-05-17T11:29:47.689Z,101796.61
2018-05-17T11:30:51.130Z,101795.60
2018-05-17T11:31:54.459Z,101801.27
2018-05-17T11:32:57.781Z,101798.00
2018-05-17T11:34:01.103Z,101798.48
2018-05-17T11:35:04.401Z,101793.91
2018-05-17T11:36:07.758Z,101793.35
2018-05-17T11:37:11.082Z,101796.30
2018-05-17T11:38:14.391Z,101794.24
2018-05-17T11:39:17.725Z,101797.72
2018-05-17T11:40:21.045Z,101795.45
2018-05-17T11:41:24.367Z,101805.22
2018-05-17T11:42:27.695Z,101795.23
2018-05-17T11:43:31.053Z,101791.70
2018-05-17T11:44:34.376Z,101792.48
2018-05-17T11:45:37.714Z,101783.94
2018-05-17T11:46:41.029Z,101785.97
2018-05-17T11:47:44.370Z,101789.77
2018-05-17T11:48:47.691Z,101788.73
2018-05-17T11:49:51.007Z,101792.53
2018-05-17T11:50:54.424Z,101781.98
2018-05-17T11:51:57.761Z,101787.78
2018-05-17T11:53:01.095Z,101786.84
2018-05-17T11:54:04.430Z,101787.27
2018-05-17T11:55:07.765Z,101779.70
2018-05-17T11:56:11.132Z,101777.80
2018-05-17T11:57:14.432Z,101785.13
2018-05-17T11:58:17.769Z,101781.47
2018-05-17T11:59:21.090Z,101786.67
2018-05-17T12:00:24.402Z,101779.60
2018-05-17T12:01:27.802Z,101785.40
2018-05-17T12:02:31.077Z,101786.19
2018-05-17T12:03:34.391Z,101787.89
2018-05-17T12:04:37.708Z,101789.56
2018-05-17T12:05:41.028Z,101790.91
2018-05-17T12:06:44.340Z,101786.38